sensor_id;sensor_type;location;lat;lon;timestamp;P1;durP1;ratioP1;P2;durP2;ratioP2
20036;SDS011;10179;42.640;23.312;2023-07-02T00:02:24;6.63;;;3.45;;
20036;SDS011;10179;42.640;23.312;2023-07-02T00:04:49;10.25;;;3.85;;
20036;SDS011;10179;42.640;23.312;2023-07-02T00:07:15;8.38;;;3.83;;
20036;SDS011;10179;42.640;23.312;2023-07-02T00:09:40;12.30;;;3.92;;
20036;SDS011;10179;42.640;23.312;2023-07-02T00:12:06;7.78;;;3.70;;
20036;SDS011;10179;42.640;23.312;2023-07-02T00:14:32;7.43;;;3.78;;
20036;SDS011;10179;42.640;23.312;2023-07-02T00:16:57;9.02;;;3.75;;
20036;SDS011;10179;42.640;23.312;2023-07-02T00:19:23;8.77;;;4.22;;
20036;SDS011;10179;42.640;23.312;2023-07-02T00:21:48;9.93;;;4.03;;
20036;SDS011;10179;42.640;23.312;2023-07-02T00:24:14;7.53;;;3.22;;
20036;SDS011;10179;42.640;23.312;2023-07-02T00:26:41;12.52;;;4.15;;
20036;SDS011;10179;42.640;23.312;2023-07-02T00:29:08;12.18;;;4.00;;
20036;SDS011;10179;42.640;23.312;2023-07-02T00:31:34;9.73;;;4.18;;
20036;SDS011;10179;42.640;23.312;2023-07-02T00:34:00;10.77;;;4.75;;
20036;SDS011;10179;42.640;23.312;2023-07-02T00:36:27;8.43;;;3.83;;
20036;SDS011;10179;42.640;23.312;2023-07-02T00:38:53;10.88;;;4.40;;
20036;SDS011;10179;42.640;23.312;2023-07-02T00:41:18;9.35;;;4.05;;
20036;SDS011;10179;42.640;23.312;2023-07-02T00:43:44;7.30;;;3.80;;
20036;SDS011;10179;42.640;23.312;2023-07-02T00:46:11;8.18;;;4.07;;
20036;SDS011;10179;42.640;23.312;2023-07-02T00:48:42;9.68;;;4.32;;
20036;SDS011;10179;42.640;23.312;2023-07-02T00:51:09;9.20;;;4.20;;
20036;SDS011;10179;42.640;23.312;2023-07-02T00:53:36;10.02;;;4.30;;
20036;SDS011;10179;42.640;23.312;2023-07-02T00:56:02;8.55;;;4.28;;
20036;SDS011;10179;42.640;23.312;2023-07-02T00:58:27;9.45;;;3.83;;
20036;SDS011;10179;42.640;23.312;2023-07-02T01:00:53;10.68;;;4.38;;
20036;SDS011;10179;42.640;23.312;2023-07-02T01:03:21;13.07;;;4.70;;
20036;SDS011;10179;42.640;23.312;2023-07-02T01:05:47;8.77;;;4.30;;
20036;SDS011;10179;42.640;23.312;2023-07-02T01:08:12;7.97;;;4.40;;
20036;SDS011;10179;42.640;23.312;2023-07-02T01:10:39;8.63;;;4.35;;
20036;SDS011;10179;42.640;23.312;2023-07-02T01:13:07;8.65;;;4.30;;
20036;SDS011;10179;42.640;23.312;2023-07-02T01:15:37;14.40;;;4.90;;
20036;SDS011;10179;42.640;23.312;2023-07-02T01:18:03;10.38;;;3.83;;
20036;SDS011;10179;42.640;23.312;2023-07-02T01:20:30;11.27;;;4.43;;
20036;SDS011;10179;42.640;23.312;2023-07-02T01:22:56;9.50;;;4.10;;
20036;SDS011;10179;42.640;23.312;2023-07-02T01:25:27;8.02;;;4.03;;
20036;SDS011;10179;42.640;23.312;2023-07-02T01:27:52;7.90;;;4.38;;
20036;SDS011;10179;42.640;23.312;2023-07-02T01:30:18;9.68;;;5.20;;
20036;SDS011;10179;42.640;23.312;2023-07-02T01:32:44;11.40;;;4.30;;
20036;SDS011;10179;42.640;23.312;2023-07-02T01:35:09;14.20;;;5.10;;
20036;SDS011;10179;42.640;23.312;2023-07-02T01:37:34;10.15;;;4.45;;
20036;SDS011;10179;42.640;23.312;2023-07-02T01:40:05;10.27;;;4.82;;
20036;SDS011;10179;42.640;23.312;2023-07-02T01:42:31;10.05;;;4.22;;
20036;SDS011;10179;42.640;23.312;2023-07-02T01:44:57;9.65;;;4.70;;
20036;SDS011;10179;42.640;23.312;2023-07-02T01:47:23;8.40;;;4.90;;
20036;SDS011;10179;42.640;23.312;2023-07-02T01:49:49;15.00;;;4.93;;
20036;SDS011;10179;42.640;23.312;2023-07-02T01:52:15;10.00;;;4.70;;
20036;SDS011;10179;42.640;23.312;2023-07-02T01:54:41;9.98;;;4.57;;
20036;SDS011;10179;42.640;23.312;2023-07-02T01:57:07;10.30;;;5.45;;
20036;SDS011;10179;42.640;23.312;2023-07-02T02:02:12;10.18;;;5.35;;
20036;SDS011;10179;42.640;23.312;2023-07-02T02:04:37;12.10;;;5.55;;
20036;SDS011;10179;42.640;23.312;2023-07-02T02:07:03;12.60;;;5.70;;
20036;SDS011;10179;42.640;23.312;2023-07-02T02:09:28;11.55;;;5.95;;
20036;SDS011;10179;42.640;23.312;2023-07-02T02:11:55;11.05;;;5.85;;
20036;SDS011;10179;42.640;23.312;2023-07-02T02:14:20;12.13;;;5.93;;
20036;SDS011;10179;42.640;23.312;2023-07-02T02:16:47;10.90;;;5.68;;
20036;SDS011;10179;42.640;23.312;2023-07-02T02:19:12;13.32;;;5.78;;
20036;SDS011;10179;42.640;23.312;2023-07-02T02:21:39;11.77;;;6.50;;
20036;SDS011;10179;42.640;23.312;2023-07-02T02:24:06;13.70;;;5.70;;
20036;SDS011;10179;42.640;23.312;2023-07-02T02:26:33;11.27;;;5.80;;
20036;SDS011;10179;42.640;23.312;2023-07-02T02:28:59;14.63;;;6.20;;
20036;SDS011;10179;42.640;23.312;2023-07-02T02:31:24;14.05;;;5.88;;
20036;SDS011;10179;42.640;23.312;2023-07-02T02:33:50;13.70;;;6.47;;
20036;SDS011;10179;42.640;23.312;2023-07-02T02:36:15;12.90;;;6.68;;
20036;SDS011;10179;42.640;23.312;2023-07-02T02:38:42;13.98;;;6.10;;
20036;SDS011;10179;42.640;23.312;2023-07-02T02:41:07;15.18;;;6.90;;
20036;SDS011;10179;42.640;23.312;2023-07-02T02:43:33;12.52;;;6.75;;
20036;SDS011;10179;42.640;23.312;2023-07-02T02:45:59;14.40;;;5.65;;
20036;SDS011;10179;42.640;23.312;2023-07-02T02:48:25;11.73;;;6.25;;
20036;SDS011;10179;42.640;23.312;2023-07-02T02:50:50;15.00;;;6.03;;
20036;SDS011;10179;42.640;23.312;2023-07-02T02:53:15;10.77;;;5.80;;
20036;SDS011;10179;42.640;23.312;2023-07-02T02:55:41;9.27;;;5.53;;
20036;SDS011;10179;42.640;23.312;2023-07-02T02:58:06;13.63;;;5.32;;
20036;SDS011;10179;42.640;23.312;2023-07-02T03:00:32;11.88;;;5.60;;
20036;SDS011;10179;42.640;23.312;2023-07-02T03:02:58;9.02;;;4.75;;
20036;SDS011;10179;42.640;23.312;2023-07-02T03:05:24;11.40;;;5.35;;
20036;SDS011;10179;42.640;23.312;2023-07-02T03:07:50;12.20;;;5.18;;
20036;SDS011;10179;42.640;23.312;2023-07-02T03:10:16;12.82;;;5.60;;
20036;SDS011;10179;42.640;23.312;2023-07-02T03:12:41;11.05;;;5.75;;
20036;SDS011;10179;42.640;23.312;2023-07-02T03:15:07;10.70;;;5.35;;
20036;SDS011;10179;42.640;23.312;2023-07-02T03:17:33;9.63;;;4.93;;
20036;SDS011;10179;42.640;23.312;2023-07-02T03:19:58;9.60;;;5.22;;
20036;SDS011;10179;42.640;23.312;2023-07-02T03:22:24;12.73;;;5.10;;
20036;SDS011;10179;42.640;23.312;2023-07-02T03:24:49;10.55;;;5.68;;
20036;SDS011;10179;42.640;23.312;2023-07-02T03:27:14;11.73;;;5.40;;
20036;SDS011;10179;42.640;23.312;2023-07-02T03:29:40;7.95;;;4.57;;
20036;SDS011;10179;42.640;23.312;2023-07-02T03:32:05;13.05;;;5.20;;
20036;SDS011;10179;42.640;23.312;2023-07-02T03:34:31;13.25;;;5.55;;
20036;SDS011;10179;42.640;23.312;2023-07-02T03:36:56;9.93;;;5.43;;
20036;SDS011;10179;42.640;23.312;2023-07-02T03:39:22;9.77;;;5.57;;
20036;SDS011;10179;42.640;23.312;2023-07-02T03:41:47;11.95;;;5.45;;
20036;SDS011;10179;42.640;23.312;2023-07-02T03:44:13;9.18;;;5.47;;
20036;SDS011;10179;42.640;23.312;2023-07-02T03:46:38;9.02;;;4.95;;
20036;SDS011;10179;42.640;23.312;2023-07-02T03:49:03;10.63;;;5.22;;
20036;SDS011;10179;42.640;23.312;2023-07-02T03:51:29;8.98;;;4.53;;
20036;SDS011;10179;42.640;23.312;2023-07-02T03:53:58;10.02;;;4.65;;
20036;SDS011;10179;42.640;23.312;2023-07-02T03:56:24;6.82;;;4.15;;
20036;SDS011;10179;42.640;23.312;2023-07-02T03:58:49;8.05;;;4.28;;
20036;SDS011;10179;42.640;23.312;2023-07-02T04:01:15;8.57;;;4.53;;
20036;SDS011;10179;42.640;23.312;2023-07-02T04:03:42;11.98;;;4.28;;
20036;SDS011;10179;42.640;23.312;2023-07-02T04:06:13;7.63;;;3.92;;
20036;SDS011;10179;42.640;23.312;2023-07-02T04:08:39;11.13;;;3.92;;
20036;SDS011;10179;42.640;23.312;2023-07-02T04:11:04;7.00;;;3.67;;
20036;SDS011;10179;42.640;23.312;2023-07-02T04:13:29;8.13;;;4.43;;
20036;SDS011;10179;42.640;23.312;2023-07-02T04:15:55;12.02;;;4.30;;
20036;SDS011;10179;42.640;23.312;2023-07-02T04:18:20;10.07;;;4.70;;
20036;SDS011;10179;42.640;23.312;2023-07-02T04:20:46;7.43;;;3.97;;
20036;SDS011;10179;42.640;23.312;2023-07-02T04:23:11;6.95;;;3.97;;
20036;SDS011;10179;42.640;23.312;2023-07-02T04:25:36;9.07;;;4.25;;
20036;SDS011;10179;42.640;23.312;2023-07-02T04:28:02;8.27;;;4.15;;
20036;SDS011;10179;42.640;23.312;2023-07-02T04:30:27;8.73;;;3.92;;
20036;SDS011;10179;42.640;23.312;2023-07-02T04:32:53;9.88;;;4.47;;
20036;SDS011;10179;42.640;23.312;2023-07-02T04:35:18;7.22;;;4.00;;
20036;SDS011;10179;42.640;23.312;2023-07-02T04:37:44;8.48;;;3.88;;
20036;SDS011;10179;42.640;23.312;2023-07-02T04:40:09;7.15;;;4.25;;
20036;SDS011;10179;42.640;23.312;2023-07-02T04:42:38;7.80;;;3.53;;
20036;SDS011;10179;42.640;23.312;2023-07-02T04:45:05;7.38;;;4.13;;
20036;SDS011;10179;42.640;23.312;2023-07-02T04:47:30;9.43;;;3.90;;
20036;SDS011;10179;42.640;23.312;2023-07-02T04:49:56;7.72;;;4.05;;
20036;SDS011;10179;42.640;23.312;2023-07-02T04:52:22;8.13;;;3.75;;
20036;SDS011;10179;42.640;23.312;2023-07-02T04:54:47;12.10;;;4.72;;
20036;SDS011;10179;42.640;23.312;2023-07-02T04:57:13;7.95;;;4.63;;
20036;SDS011;10179;42.640;23.312;2023-07-02T04:59:40;18.02;;;5.03;;
20036;SDS011;10179;42.640;23.312;2023-07-02T05:02:06;15.00;;;7.20;;
20036;SDS011;10179;42.640;23.312;2023-07-02T05:04:31;13.50;;;6.32;;
20036;SDS011;10179;42.640;23.312;2023-07-02T05:06:57;13.25;;;5.43;;
20036;SDS011;10179;42.640;23.312;2023-07-02T05:09:22;11.95;;;6.10;;
20036;SDS011;10179;42.640;23.312;2023-07-02T05:11:48;10.93;;;5.53;;
20036;SDS011;10179;42.640;23.312;2023-07-02T05:14:13;9.65;;;5.60;;
20036;SDS011;10179;42.640;23.312;2023-07-02T05:16:38;14.60;;;5.75;;
20036;SDS011;10179;42.640;23.312;2023-07-02T05:19:04;10.15;;;5.10;;
20036;SDS011;10179;42.640;23.312;2023-07-02T05:21:29;10.52;;;5.40;;
20036;SDS011;10179;42.640;23.312;2023-07-02T05:23:54;11.18;;;4.85;;
20036;SDS011;10179;42.640;23.312;2023-07-02T05:26:20;10.63;;;4.57;;
20036;SDS011;10179;42.640;23.312;2023-07-02T05:28:45;9.57;;;4.50;;
20036;SDS011;10179;42.640;23.312;2023-07-02T05:31:11;11.60;;;5.05;;
20036;SDS011;10179;42.640;23.312;2023-07-02T05:33:36;12.60;;;5.55;;
20036;SDS011;10179;42.640;23.312;2023-07-02T05:36:03;13.55;;;5.68;;
20036;SDS011;10179;42.640;23.312;2023-07-02T05:38:29;12.50;;;5.22;;
20036;SDS011;10179;42.640;23.312;2023-07-02T05:40:54;10.00;;;5.40;;
20036;SDS011;10179;42.640;23.312;2023-07-02T05:43:20;14.23;;;4.50;;
20036;SDS011;10179;42.640;23.312;2023-07-02T05:45:45;10.48;;;5.20;;
20036;SDS011;10179;42.640;23.312;2023-07-02T05:48:10;11.70;;;5.45;;
20036;SDS011;10179;42.640;23.312;2023-07-02T05:50:36;13.15;;;5.28;;
20036;SDS011;10179;42.640;23.312;2023-07-02T05:53:02;12.57;;;5.20;;
20036;SDS011;10179;42.640;23.312;2023-07-02T05:55:27;15.35;;;6.45;;
20036;SDS011;10179;42.640;23.312;2023-07-02T05:57:52;14.52;;;6.45;;
20036;SDS011;10179;42.640;23.312;2023-07-02T06:00:18;13.43;;;6.15;;
20036;SDS011;10179;42.640;23.312;2023-07-02T06:02:45;15.65;;;6.22;;
20036;SDS011;10179;42.640;23.312;2023-07-02T06:05:11;12.77;;;5.60;;
20036;SDS011;10179;42.640;23.312;2023-07-02T06:07:37;17.25;;;6.00;;
20036;SDS011;10179;42.640;23.312;2023-07-02T06:10:02;11.48;;;6.60;;
20036;SDS011;10179;42.640;23.312;2023-07-02T06:12:28;15.85;;;6.50;;
20036;SDS011;10179;42.640;23.312;2023-07-02T06:14:53;11.13;;;6.22;;
20036;SDS011;10179;42.640;23.312;2023-07-02T06:17:18;13.63;;;6.55;;
20036;SDS011;10179;42.640;23.312;2023-07-02T06:19:45;16.13;;;7.03;;
20036;SDS011;10179;42.640;23.312;2023-07-02T06:22:11;20.27;;;8.73;;
20036;SDS011;10179;42.640;23.312;2023-07-02T06:24:37;16.00;;;7.35;;
20036;SDS011;10179;42.640;23.312;2023-07-02T06:27:02;15.52;;;6.30;;
20036;SDS011;10179;42.640;23.312;2023-07-02T06:29:28;14.18;;;6.57;;
20036;SDS011;10179;42.640;23.312;2023-07-02T06:31:54;14.45;;;6.75;;
20036;SDS011;10179;42.640;23.312;2023-07-02T06:34:19;16.10;;;6.75;;
20036;SDS011;10179;42.640;23.312;2023-07-02T06:36:44;14.05;;;6.60;;
20036;SDS011;10179;42.640;23.312;2023-07-02T06:39:10;15.13;;;6.75;;
20036;SDS011;10179;42.640;23.312;2023-07-02T06:41:35;14.93;;;7.07;;
20036;SDS011;10179;42.640;23.312;2023-07-02T06:44:01;28.13;;;7.20;;
20036;SDS011;10179;42.640;23.312;2023-07-02T06:46:27;13.38;;;6.55;;
20036;SDS011;10179;42.640;23.312;2023-07-02T06:48:54;13.13;;;6.30;;
20036;SDS011;10179;42.640;23.312;2023-07-02T06:51:20;12.32;;;6.43;;
20036;SDS011;10179;42.640;23.312;2023-07-02T06:53:46;11.43;;;5.65;;
20036;SDS011;10179;42.640;23.312;2023-07-02T06:56:12;14.73;;;5.85;;
20036;SDS011;10179;42.640;23.312;2023-07-02T06:58:43;13.45;;;5.22;;
20036;SDS011;10179;42.640;23.312;2023-07-02T07:01:09;13.82;;;5.07;;
20036;SDS011;10179;42.640;23.312;2023-07-02T07:03:35;14.93;;;6.25;;
20036;SDS011;10179;42.640;23.312;2023-07-02T07:06:00;15.55;;;5.35;;
20036;SDS011;10179;42.640;23.312;2023-07-02T07:08:26;10.43;;;5.55;;
20036;SDS011;10179;42.640;23.312;2023-07-02T07:10:51;11.75;;;5.50;;
20036;SDS011;10179;42.640;23.312;2023-07-02T07:13:17;13.40;;;5.43;;
20036;SDS011;10179;42.640;23.312;2023-07-02T07:15:42;10.05;;;5.50;;
20036;SDS011;10179;42.640;23.312;2023-07-02T07:18:08;13.82;;;5.65;;
20036;SDS011;10179;42.640;23.312;2023-07-02T07:20:34;10.95;;;6.10;;
20036;SDS011;10179;42.640;23.312;2023-07-02T07:23:01;12.73;;;5.93;;
20036;SDS011;10179;42.640;23.312;2023-07-02T07:25:27;13.50;;;5.63;;
20036;SDS011;10179;42.640;23.312;2023-07-02T07:27:53;12.00;;;5.63;;
20036;SDS011;10179;42.640;23.312;2023-07-02T07:30:19;13.93;;;5.10;;
20036;SDS011;10179;42.640;23.312;2023-07-02T07:32:48;9.43;;;5.25;;
20036;SDS011;10179;42.640;23.312;2023-07-02T07:35:14;9.30;;;4.88;;
20036;SDS011;10179;42.640;23.312;2023-07-02T07:37:40;11.85;;;4.70;;
20036;SDS011;10179;42.640;23.312;2023-07-02T07:40:05;7.25;;;4.20;;
20036;SDS011;10179;42.640;23.312;2023-07-02T07:42:31;8.50;;;4.07;;
20036;SDS011;10179;42.640;23.312;2023-07-02T07:44:56;8.70;;;4.70;;
20036;SDS011;10179;42.640;23.312;2023-07-02T07:47:22;9.82;;;4.32;;
20036;SDS011;10179;42.640;23.312;2023-07-02T07:49:47;8.45;;;5.00;;
20036;SDS011;10179;42.640;23.312;2023-07-02T07:52:13;11.98;;;4.97;;
20036;SDS011;10179;42.640;23.312;2023-07-02T07:54:38;10.02;;;5.10;;
20036;SDS011;10179;42.640;23.312;2023-07-02T07:57:04;11.75;;;5.07;;
20036;SDS011;10179;42.640;23.312;2023-07-02T07:59:30;15.68;;;5.22;;
20036;SDS011;10179;42.640;23.312;2023-07-02T08:01:55;10.13;;;4.55;;
20036;SDS011;10179;42.640;23.312;2023-07-02T08:04:20;9.07;;;4.53;;
20036;SDS011;10179;42.640;23.312;2023-07-02T08:06:46;12.93;;;4.70;;
20036;SDS011;10179;42.640;23.312;2023-07-02T08:09:11;10.60;;;4.60;;
20036;SDS011;10179;42.640;23.312;2023-07-02T08:11:37;10.43;;;4.75;;
20036;SDS011;10179;42.640;23.312;2023-07-02T08:14:03;7.57;;;4.38;;
20036;SDS011;10179;42.640;23.312;2023-07-02T08:16:28;9.25;;;3.80;;
20036;SDS011;10179;42.640;23.312;2023-07-02T08:18:54;8.68;;;4.07;;
20036;SDS011;10179;42.640;23.312;2023-07-02T08:21:19;7.78;;;4.20;;
20036;SDS011;10179;42.640;23.312;2023-07-02T08:23:44;8.75;;;4.55;;
20036;SDS011;10179;42.640;23.312;2023-07-02T08:26:10;8.02;;;4.00;;
20036;SDS011;10179;42.640;23.312;2023-07-02T08:28:36;9.43;;;4.00;;
20036;SDS011;10179;42.640;23.312;2023-07-02T08:31:03;13.15;;;3.95;;
20036;SDS011;10179;42.640;23.312;2023-07-02T08:33:28;6.60;;;4.32;;
20036;SDS011;10179;42.640;23.312;2023-07-02T08:35:54;7.65;;;3.70;;
20036;SDS011;10179;42.640;23.312;2023-07-02T08:38:19;8.15;;;3.63;;
20036;SDS011;10179;42.640;23.312;2023-07-02T08:40:45;8.75;;;3.88;;
20036;SDS011;10179;42.640;23.312;2023-07-02T08:43:10;9.20;;;4.32;;
20036;SDS011;10179;42.640;23.312;2023-07-02T08:45:36;7.05;;;3.75;;
20036;SDS011;10179;42.640;23.312;2023-07-02T08:48:01;11.27;;;3.92;;
20036;SDS011;10179;42.640;23.312;2023-07-02T08:50:27;6.47;;;3.90;;
20036;SDS011;10179;42.640;23.312;2023-07-02T08:52:53;7.45;;;4.30;;
20036;SDS011;10179;42.640;23.312;2023-07-02T08:55:19;8.65;;;4.00;;
20036;SDS011;10179;42.640;23.312;2023-07-02T08:57:49;9.80;;;4.78;;
20036;SDS011;10179;42.640;23.312;2023-07-02T09:00:18;9.93;;;4.18;;
20036;SDS011;10179;42.640;23.312;2023-07-02T09:02:44;10.02;;;4.35;;
20036;SDS011;10179;42.640;23.312;2023-07-02T09:05:11;7.78;;;4.18;;
20036;SDS011;10179;42.640;23.312;2023-07-02T09:07:43;8.60;;;4.38;;
20036;SDS011;10179;42.640;23.312;2023-07-02T09:10:14;7.55;;;4.10;;
20036;SDS011;10179;42.640;23.312;2023-07-02T09:13:03;11.65;;;4.38;;
20036;SDS011;10179;42.640;23.312;2023-07-02T09:15:38;11.65;;;4.35;;
20036;SDS011;10179;42.640;23.312;2023-07-02T09:18:25;9.30;;;4.47;;
20036;SDS011;10179;42.640;23.312;2023-07-02T09:20:50;7.00;;;4.05;;
20036;SDS011;10179;42.640;23.312;2023-07-02T09:23:16;7.68;;;4.30;;
20036;SDS011;10179;42.640;23.312;2023-07-02T09:25:42;11.05;;;5.15;;
20036;SDS011;10179;42.640;23.312;2023-07-02T09:28:17;14.23;;;4.70;;
20036;SDS011;10179;42.640;23.312;2023-07-02T09:30:57;9.75;;;4.15;;
20036;SDS011;10179;42.640;23.312;2023-07-02T09:33:27;10.07;;;4.60;;
20036;SDS011;10179;42.640;23.312;2023-07-02T09:35:53;10.00;;;3.83;;
20036;SDS011;10179;42.640;23.312;2023-07-02T09:38:20;8.27;;;4.30;;
20036;SDS011;10179;42.640;23.312;2023-07-02T09:40:50;8.55;;;4.22;;
20036;SDS011;10179;42.640;23.312;2023-07-02T09:43:17;6.97;;;4.03;;
20036;SDS011;10179;42.640;23.312;2023-07-02T09:45:44;7.90;;;3.80;;
20036;SDS011;10179;42.640;23.312;2023-07-02T09:48:14;8.95;;;4.15;;
20036;SDS011;10179;42.640;23.312;2023-07-02T09:50:44;7.53;;;3.97;;
20036;SDS011;10179;42.640;23.312;2023-07-02T09:53:11;5.80;;;3.57;;
20036;SDS011;10179;42.640;23.312;2023-07-02T09:55:43;8.23;;;3.92;;
20036;SDS011;10179;42.640;23.312;2023-07-02T09:58:09;10.05;;;4.30;;
20036;SDS011;10179;42.640;23.312;2023-07-02T10:00:36;9.05;;;4.10;;
20036;SDS011;10179;42.640;23.312;2023-07-02T10:03:02;10.43;;;3.95;;
20036;SDS011;10179;42.640;23.312;2023-07-02T10:05:32;8.82;;;3.65;;
20036;SDS011;10179;42.640;23.312;2023-07-02T10:07:59;6.47;;;3.38;;
20036;SDS011;10179;42.640;23.312;2023-07-02T10:10:37;6.78;;;3.90;;
20036;SDS011;10179;42.640;23.312;2023-07-02T10:13:03;6.53;;;3.45;;
20036;SDS011;10179;42.640;23.312;2023-07-02T10:15:28;6.50;;;4.03;;
20036;SDS011;10179;42.640;23.312;2023-07-02T10:18:00;7.55;;;3.45;;
20036;SDS011;10179;42.640;23.312;2023-07-02T10:20:31;6.85;;;3.45;;
20036;SDS011;10179;42.640;23.312;2023-07-02T10:22:58;9.27;;;3.58;;
20036;SDS011;10179;42.640;23.312;2023-07-02T10:25:25;8.25;;;3.30;;
20036;SDS011;10179;42.640;23.312;2023-07-02T10:27:51;8.15;;;3.47;;
20036;SDS011;10179;42.640;23.312;2023-07-02T10:30:16;7.28;;;3.50;;
20036;SDS011;10179;42.640;23.312;2023-07-02T10:32:42;7.20;;;3.35;;
20036;SDS011;10179;42.640;23.312;2023-07-02T10:35:17;5.90;;;3.53;;
20036;SDS011;10179;42.640;23.312;2023-07-02T10:37:43;6.72;;;3.47;;
20036;SDS011;10179;42.640;23.312;2023-07-02T10:40:10;6.43;;;3.05;;
20036;SDS011;10179;42.640;23.312;2023-07-02T10:42:48;4.68;;;3.00;;
20036;SDS011;10179;42.640;23.312;2023-07-02T10:45:15;6.15;;;3.28;;
20036;SDS011;10179;42.640;23.312;2023-07-02T10:47:41;5.47;;;2.65;;
20036;SDS011;10179;42.640;23.312;2023-07-02T10:50:16;5.38;;;3.13;;
20036;SDS011;10179;42.640;23.312;2023-07-02T10:52:43;8.15;;;4.30;;
20036;SDS011;10179;42.640;23.312;2023-07-02T10:55:08;10.05;;;4.53;;
20036;SDS011;10179;42.640;23.312;2023-07-02T10:57:34;10.88;;;3.45;;
20036;SDS011;10179;42.640;23.312;2023-07-02T11:00:06;6.13;;;3.38;;
20036;SDS011;10179;42.640;23.312;2023-07-02T11:02:34;7.35;;;3.40;;
20036;SDS011;10179;42.640;23.312;2023-07-02T11:05:00;5.70;;;3.20;;
20036;SDS011;10179;42.640;23.312;2023-07-02T11:07:26;5.10;;;2.90;;
20036;SDS011;10179;42.640;23.312;2023-07-02T11:09:51;5.03;;;3.03;;
20036;SDS011;10179;42.640;23.312;2023-07-02T11:12:17;5.07;;;3.03;;
20036;SDS011;10179;42.640;23.312;2023-07-02T11:14:42;5.75;;;3.17;;
20036;SDS011;10179;42.640;23.312;2023-07-02T11:17:08;6.30;;;3.80;;
20036;SDS011;10179;42.640;23.312;2023-07-02T11:19:33;7.22;;;3.22;;
20036;SDS011;10179;42.640;23.312;2023-07-02T11:21:59;7.57;;;3.22;;
20036;SDS011;10179;42.640;23.312;2023-07-02T11:24:30;5.10;;;2.83;;
20036;SDS011;10179;42.640;23.312;2023-07-02T11:26:56;5.55;;;3.00;;
20036;SDS011;10179;42.640;23.312;2023-07-02T11:29:22;6.95;;;3.58;;
20036;SDS011;10179;42.640;23.312;2023-07-02T11:31:48;8.80;;;3.63;;
20036;SDS011;10179;42.640;23.312;2023-07-02T11:34:18;6.55;;;3.00;;
20036;SDS011;10179;42.640;23.312;2023-07-02T11:36:47;7.95;;;3.45;;
20036;SDS011;10179;42.640;23.312;2023-07-02T11:39:13;5.70;;;3.00;;
20036;SDS011;10179;42.640;23.312;2023-07-02T11:41:41;6.60;;;3.28;;
20036;SDS011;10179;42.640;23.312;2023-07-02T11:44:08;5.85;;;2.83;;
20036;SDS011;10179;42.640;23.312;2023-07-02T11:46:34;9.48;;;4.93;;
20036;SDS011;10179;42.640;23.312;2023-07-02T11:49:00;9.02;;;3.78;;
20036;SDS011;10179;42.640;23.312;2023-07-02T11:51:26;7.03;;;2.88;;
20036;SDS011;10179;42.640;23.312;2023-07-02T11:53:52;5.30;;;2.70;;
20036;SDS011;10179;42.640;23.312;2023-07-02T11:56:17;4.93;;;2.80;;
20036;SDS011;10179;42.640;23.312;2023-07-02T11:58:43;6.53;;;3.03;;
20036;SDS011;10179;42.640;23.312;2023-07-02T12:01:08;6.20;;;2.45;;
20036;SDS011;10179;42.640;23.312;2023-07-02T12:03:34;3.78;;;2.30;;
20036;SDS011;10179;42.640;23.312;2023-07-02T12:05:59;3.15;;;2.00;;
20036;SDS011;10179;42.640;23.312;2023-07-02T12:08:25;5.53;;;2.40;;
20036;SDS011;10179;42.640;23.312;2023-07-02T12:10:51;5.10;;;2.33;;
20036;SDS011;10179;42.640;23.312;2023-07-02T12:13:16;4.70;;;2.67;;
20036;SDS011;10179;42.640;23.312;2023-07-02T12:15:42;4.10;;;2.53;;
20036;SDS011;10179;42.640;23.312;2023-07-02T12:18:08;3.35;;;2.13;;
20036;SDS011;10179;42.640;23.312;2023-07-02T12:20:34;4.20;;;2.53;;
20036;SDS011;10179;42.640;23.312;2023-07-02T12:23:00;5.18;;;2.80;;
20036;SDS011;10179;42.640;23.312;2023-07-02T12:25:25;5.68;;;2.63;;
20036;SDS011;10179;42.640;23.312;2023-07-02T12:27:51;4.47;;;2.67;;
20036;SDS011;10179;42.640;23.312;2023-07-02T12:30:16;4.10;;;2.65;;
20036;SDS011;10179;42.640;23.312;2023-07-02T12:32:43;7.53;;;3.38;;
20036;SDS011;10179;42.640;23.312;2023-07-02T12:35:09;4.57;;;2.80;;
20036;SDS011;10179;42.640;23.312;2023-07-02T12:37:34;4.97;;;3.05;;
20036;SDS011;10179;42.640;23.312;2023-07-02T12:40:00;7.07;;;3.42;;
20036;SDS011;10179;42.640;23.312;2023-07-02T12:42:26;6.70;;;3.55;;
20036;SDS011;10179;42.640;23.312;2023-07-02T12:44:51;19.42;;;9.27;;
20036;SDS011;10179;42.640;23.312;2023-07-02T12:47:17;7.22;;;3.70;;
20036;SDS011;10179;42.640;23.312;2023-07-02T12:49:42;8.30;;;3.45;;
20036;SDS011;10179;42.640;23.312;2023-07-02T12:52:08;5.53;;;3.10;;
20036;SDS011;10179;42.640;23.312;2023-07-02T12:54:33;5.30;;;2.97;;
20036;SDS011;10179;42.640;23.312;2023-07-02T12:56:59;6.88;;;3.17;;
20036;SDS011;10179;42.640;23.312;2023-07-02T12:59:24;7.55;;;3.13;;
20036;SDS011;10179;42.640;23.312;2023-07-02T13:01:50;9.65;;;3.08;;
20036;SDS011;10179;42.640;23.312;2023-07-02T13:04:15;5.97;;;3.63;;
20036;SDS011;10179;42.640;23.312;2023-07-02T13:06:41;7.00;;;3.40;;
20036;SDS011;10179;42.640;23.312;2023-07-02T13:09:07;13.80;;;5.95;;
20036;SDS011;10179;42.640;23.312;2023-07-02T13:11:32;11.07;;;4.65;;
20036;SDS011;10179;42.640;23.312;2023-07-02T13:13:58;7.63;;;4.03;;
20036;SDS011;10179;42.640;23.312;2023-07-02T13:16:23;16.48;;;6.97;;
20036;SDS011;10179;42.640;23.312;2023-07-02T13:18:49;11.55;;;4.22;;
20036;SDS011;10179;42.640;23.312;2023-07-02T13:21:14;9.77;;;3.00;;
20036;SDS011;10179;42.640;23.312;2023-07-02T13:23:40;6.25;;;3.40;;
20036;SDS011;10179;42.640;23.312;2023-07-02T13:26:05;7.45;;;3.72;;
20036;SDS011;10179;42.640;23.312;2023-07-02T13:28:31;9.80;;;3.15;;
20036;SDS011;10179;42.640;23.312;2023-07-02T13:30:56;7.72;;;3.25;;
20036;SDS011;10179;42.640;23.312;2023-07-02T13:33:22;5.38;;;3.35;;
20036;SDS011;10179;42.640;23.312;2023-07-02T13:35:47;5.35;;;3.30;;
20036;SDS011;10179;42.640;23.312;2023-07-02T13:38:12;6.97;;;3.90;;
20036;SDS011;10179;42.640;23.312;2023-07-02T13:40:38;7.53;;;3.42;;
20036;SDS011;10179;42.640;23.312;2023-07-02T13:43:04;8.38;;;3.15;;
20036;SDS011;10179;42.640;23.312;2023-07-02T13:45:29;5.95;;;3.22;;
20036;SDS011;10179;42.640;23.312;2023-07-02T13:47:55;6.07;;;3.60;;
20036;SDS011;10179;42.640;23.312;2023-07-02T13:50:20;9.32;;;3.70;;
20036;SDS011;10179;42.640;23.312;2023-07-02T13:52:45;6.82;;;3.33;;
20036;SDS011;10179;42.640;23.312;2023-07-02T13:55:11;7.78;;;4.05;;
20036;SDS011;10179;42.640;23.312;2023-07-02T13:57:37;5.38;;;3.25;;
20036;SDS011;10179;42.640;23.312;2023-07-02T14:00:02;7.90;;;3.67;;
20036;SDS011;10179;42.640;23.312;2023-07-02T14:02:29;9.60;;;3.72;;
20036;SDS011;10179;42.640;23.312;2023-07-02T14:04:56;4.45;;;2.95;;
20036;SDS011;10179;42.640;23.312;2023-07-02T14:07:23;7.22;;;3.30;;
20036;SDS011;10179;42.640;23.312;2023-07-02T14:09:48;7.50;;;3.85;;
20036;SDS011;10179;42.640;23.312;2023-07-02T14:12:14;7.10;;;3.92;;
20036;SDS011;10179;42.640;23.312;2023-07-02T14:14:40;9.68;;;4.35;;
20036;SDS011;10179;42.640;23.312;2023-07-02T14:17:05;9.90;;;4.70;;
20036;SDS011;10179;42.640;23.312;2023-07-02T14:19:31;5.40;;;3.25;;
20036;SDS011;10179;42.640;23.312;2023-07-02T14:21:56;11.32;;;4.93;;
20036;SDS011;10179;42.640;23.312;2023-07-02T14:24:22;8.27;;;4.22;;
20036;SDS011;10179;42.640;23.312;2023-07-02T14:26:47;8.07;;;4.43;;